createdAt,value
2019-01-28T00:01:49.309Z,5.10
2019-01-28T00:06:52.972Z,4.87
2019-01-28T00:11:56.632Z,4.73
2019-01-28T00:17:00.307Z,4.83
2019-01-28T00:22:04.440Z,4.80
2019-01-28T00:27:08.100Z,6.03
2019-01-28T00:32:11.752Z,6.33
2019-01-28T00:37:15.427Z,6.27
2019-01-28T00:42:19.076Z,6.90
2019-01-28T00:47:22.736Z,6.57
2019-01-28T00:52:27.577Z,7.27
2019-01-28T00:57:31.265Z,7.23
2019-01-28T01:02:34.994Z,7.60
2019-01-28T01:07:38.656Z,9.23
2019-01-28T01:12:42.408Z,9.10
2019-01-28T01:17:46.073Z,8.70
2019-01-28T01:22:49.742Z,8.70
2019-01-28T01:27:55.365Z,8.20
2019-01-28T01:32:59.350Z,7.77
2019-01-28T01:38:03.001Z,7.87
2019-01-28T01:43:06.652Z,8.40
2019-01-28T01:48:11.608Z,8.50
2019-01-28T01:53:15.586Z,8.43
2019-01-28T01:58:19.342Z,9.17
2019-01-28T02:03:23.331Z,9.43
2019-01-28T02:08:27.001Z,9.07
2019-01-28T02:13:30.657Z,9.87
2019-01-28T02:18:34.318Z,10.27
2019-01-28T02:23:37.977Z,10.03
2019-01-28T02:28:41.641Z,10.43
2019-01-28T02:33:45.312Z,11.27
2019-01-28T02:38:49.269Z,11.37
2019-01-28T02:43:52.958Z,10.77
2019-01-28T02:48:56.657Z,10.40
2019-01-28T02:54:00.343Z,10.73
2019-01-28T02:59:04.094Z,9.67
2019-01-28T03:04:07.842Z,9.83
2019-01-28T03:09:11.821Z,9.83
2019-01-28T03:14:15.506Z,9.77
2019-01-28T03:19:19.199Z,8.33
2019-01-28T03:24:22.875Z,9.27
2019-01-28T03:29:26.635Z,9.17
2019-01-28T03:34:30.422Z,8.30
2019-01-28T03:39:34.099Z,8.67
2019-01-28T03:44:38.066Z,9.33
2019-01-28T03:49:41.745Z,8.57
2019-01-28T03:54:45.719Z,8.37
2019-01-28T03:59:49.403Z,8.40
2019-01-28T04:04:55.611Z,7.93
2019-01-28T04:09:59.297Z,6.90
2019-01-28T04:15:02.977Z,6.73
2019-01-28T04:20:08.707Z,5.70
2019-01-28T04:25:12.832Z,5.73
2019-01-28T04:30:18.524Z,4.40
2019-01-28T04:35:22.475Z,3.60
2019-01-28T04:40:26.153Z,3.50
2019-01-28T04:45:29.839Z,3.10
2019-01-28T04:50:33.586Z,3.73
2019-01-28T04:55:37.274Z,3.37
2019-01-28T05:00:40.950Z,3.97
2019-01-28T05:05:44.633Z,4.20
2019-01-28T05:10:48.311Z,4.97
2019-01-28T05:15:52.004Z,5.07
2019-01-28T05:20:55.686Z,5.23
2019-01-28T05:25:59.366Z,5.77
2019-01-28T05:31:03.703Z,4.70
2019-01-28T05:36:07.413Z,5.20
2019-01-28T05:41:11.108Z,5.00
2019-01-28T05:46:15.066Z,4.93
2019-01-28T05:51:19.196Z,5.50
2019-01-28T05:56:22.875Z,5.10
2019-01-28T06:01:26.558Z,5.60
2019-01-28T06:06:30.318Z,4.90
2019-01-28T06:11:34.026Z,5.10
2019-01-28T06:16:37.793Z,4.90
2019-01-28T06:21:42.005Z,5.33
2019-01-28T06:26:46.171Z,5.53
2019-01-28T06:31:50.427Z,6.00
2019-01-28T06:36:55.302Z,12.27
2019-01-28T06:41:59.302Z,22.47
2019-01-28T06:47:03.053Z,12.73
2019-01-28T06:52:06.742Z,6.00
2019-01-28T06:57:10.495Z,5.50
2019-01-28T07:02:14.286Z,5.00
2019-01-28T07:07:18.014Z,5.80
2019-01-28T07:12:21.874Z,6.23
2019-01-28T07:17:25.952Z,5.90
2019-01-28T07:22:29.654Z,5.77
2019-01-28T07:27:33.363Z,5.20
2019-01-28T07:32:37.060Z,5.13
2019-01-28T07:37:41.141Z,6.23
2019-01-28T07:42:44.982Z,6.40
2019-01-28T07:47:48.746Z,6.33
2019-01-28T07:52:52.568Z,7.10
2019-01-28T07:57:56.343Z,7.57
2019-01-28T08:03:00.096Z,6.03
2019-01-28T08:08:04.291Z,6.23
2019-01-28T08:13:08.523Z,5.90
2019-01-28T08:18:12.227Z,6.53
2019-01-28T08:23:15.905Z,7.37
2019-01-28T08:28:19.909Z,6.73
2019-01-28T08:33:23.590Z,8.77
2019-01-28T08:38:27.276Z,9.03
2019-01-28T08:43:30.955Z,7.87
2019-01-28T08:48:34.667Z,7.70
2019-01-28T08:53:38.687Z,8.30
2019-01-28T08:58:42.374Z,9.97
2019-01-28T09:03:46.054Z,7.30
2019-01-28T09:08:49.754Z,7.93
2019-01-28T09:13:53.506Z,8.13
2019-01-28T09:18:57.277Z,7.13
2019-01-28T09:24:00.973Z,7.53
2019-01-28T09:29:04.654Z,6.90
2019-01-28T09:34:08.343Z,7.00
2019-01-28T09:39:12.178Z,5.73
2019-01-28T09:44:15.869Z,5.93
2019-01-28T09:49:19.946Z,5.40
2019-01-28T09:54:23.644Z,5.70
2019-01-28T09:59:27.346Z,5.17
2019-01-28T10:04:31.115Z,5.83
2019-01-28T10:09:34.805Z,5.40
2019-01-28T10:14:38.492Z,4.43
2019-01-28T10:19:42.186Z,4.07
2019-01-28T10:24:45.957Z,4.87
2019-01-28T10:29:49.659Z,4.33
2019-01-28T10:34:53.750Z,3.87
2019-01-28T10:39:57.432Z,4.27
2019-01-28T10:45:01.396Z,4.47
2019-01-28T10:50:05.763Z,4.00
2019-01-28T10:55:10.251Z,3.83
2019-01-28T11:00:20.342Z,4.00
2019-01-28T11:05:24.625Z,3.50
2019-01-28T11:10:29.711Z,3.43
2019-01-28T11:15:46.578Z,3.70
2019-01-28T11:20:50.504Z,3.33
2019-01-28T11:25:54.315Z,3.33
2019-01-28T11:31:03.638Z,4.10
2019-01-28T11:36:08.501Z,3.13
2019-01-28T11:41:12.630Z,2.87
2019-01-28T11:46:16.503Z,3.03
2019-01-28T11:51:20.396Z,3.03
2019-01-28T11:56:24.431Z,3.63
2019-01-28T12:01:32.167Z,3.50
2019-01-28T12:06:36.051Z,3.50
2019-01-28T12:11:39.769Z,3.47
2019-01-28T12:16:43.531Z,3.73
2019-01-28T12:21:47.238Z,3.30
2019-01-28T12:26:50.921Z,3.20
2019-01-28T12:31:55.002Z,2.87
2019-01-28T12:36:58.685Z,2.73
2019-01-28T12:42:02.381Z,2.77
2019-01-28T12:47:06.110Z,3.60
2019-01-28T12:52:10.202Z,3.00
2019-01-28T12:57:13.942Z,3.07
2019-01-28T13:02:17.637Z,3.30
2019-01-28T13:07:21.478Z,3.23
2019-01-28T13:12:25.304Z,3.03
2019-01-28T13:17:29.161Z,2.90
2019-01-28T13:22:33.438Z,3.27
2019-01-28T13:27:37.198Z,3.17
2019-01-28T13:32:41.195Z,3.00
2019-01-28T13:37:44.889Z,2.70
2019-01-28T13:42:48.650Z,2.80
2019-01-28T13:47:53.193Z,2.90
2019-01-28T13:52:57.155Z,2.90
2019-01-28T13:58:01.225Z,3.20
2019-01-28T14:03:05.362Z,2.80
2019-01-28T14:08:09.202Z,3.07
2019-01-28T14:13:12.971Z,2.77
2019-01-28T14:18:16.743Z,2.60
2019-01-28T14:23:21.058Z,2.23
2019-01-28T14:28:24.745Z,3.53
2019-01-28T14:33:28.690Z,5.93
2019-01-28T14:38:32.378Z,3.00
2019-01-28T14:43:36.059Z,2.87
2019-01-28T14:48:39.737Z,2.87
2019-01-28T14:53:43.419Z,2.50
2019-01-28T14:58:47.097Z,2.47
2019-01-28T15:03:50.862Z,2.40
2019-01-28T15:08:55.073Z,2.57
2019-01-28T15:13:58.765Z,2.50
2019-01-28T15:19:02.825Z,2.50
2019-01-28T15:24:06.533Z,2.80
2019-01-28T15:29:10.394Z,2.77
2019-01-28T15:34:14.358Z,2.40
2019-01-28T15:39:18.194Z,4.10
2019-01-28T15:44:23.154Z,2.60
2019-01-28T15:49:27.137Z,2.37
2019-01-28T15:54:30.830Z,2.20
2019-01-28T15:59:34.543Z,2.30
2019-01-28T16:04:38.239Z,2.43
2019-01-28T16:09:41.918Z,2.40
2019-01-28T16:14:45.921Z,2.57
2019-01-28T16:19:49.597Z,2.70
2019-01-28T16:24:53.279Z,5.20
2019-01-28T16:29:57.295Z,4.13
2019-01-28T16:35:01.474Z,3.00
2019-01-28T16:40:07.395Z,2.50
2019-01-28T16:45:12.719Z,2.93
2019-01-28T16:50:27.057Z,3.00
2019-01-28T16:55:30.929Z,2.97
2019-01-28T17:00:37.857Z,3.50
2019-01-28T17:05:42.629Z,4.93
2019-01-28T17:10:46.428Z,18.40
2019-01-28T17:15:50.375Z,3.97
2019-01-28T17:20:54.088Z,4.17
2019-01-28T17:25:57.801Z,13.83
2019-01-28T17:31:01.539Z,3.40
2019-01-28T17:36:05.580Z,3.83
2019-01-28T17:41:09.259Z,6.47
2019-01-28T17:46:13.014Z,8.13
2019-01-28T17:51:16.769Z,8.03
2019-01-28T17:56:20.785Z,9.13
2019-01-28T18:01:25.384Z,6.77
2019-01-28T18:06:29.154Z,10.33
2019-01-28T18:11:32.939Z,7.40
2019-01-28T18:16:37.249Z,6.07
2019-01-28T18:21:40.949Z,7.17
2019-01-28T18:26:44.626Z,6.50
2019-01-28T18:31:48.401Z,7.73
2019-01-28T18:36:52.526Z,7.70
2019-01-28T18:41:56.214Z,6.57
2019-01-28T18:46:59.890Z,5.83
2019-01-28T18:52:03.916Z,5.43
2019-01-28T18:57:07.878Z,4.63
2019-01-28T19:02:12.394Z,4.77
2019-01-28T19:07:36.585Z,4.70
2019-01-28T19:12:47.946Z,5.10
2019-01-28T19:18:17.027Z,6.30
2019-01-28T19:23:21.502Z,5.93
2019-01-28T19:28:25.268Z,5.40
2019-01-28T19:33:29.294Z,5.20
2019-01-28T19:38:33.631Z,5.83
2019-01-28T19:43:37.523Z,6.23
2019-01-28T19:48:41.633Z,7.20
2019-01-28T19:53:45.432Z,6.60
2019-01-28T19:58:49.521Z,8.53
2019-01-28T20:03:53.477Z,7.20
2019-01-28T20:08:57.789Z,7.53
2019-01-28T20:14:02.594Z,8.60
2019-01-28T20:19:07.211Z,8.30
2019-01-28T20:24:11.334Z,7.73
2019-01-28T20:29:15.109Z,8.57
2019-01-28T20:34:18.978Z,9.17
2019-01-28T20:39:23.045Z,9.23
2019-01-28T20:44:26.771Z,11.93
2019-01-28T20:49:30.487Z,11.03
2019-01-28T20:54:34.173Z,8.50
2019-01-28T20:59:38.904Z,9.47
2019-01-28T21:04:42.934Z,8.77
2019-01-28T21:09:46.672Z,8.73
2019-01-28T21:14:50.400Z,8.60
2019-01-28T21:19:54.401Z,8.60
2019-01-28T21:24:58.435Z,8.93
2019-01-28T21:30:02.462Z,9.43
2019-01-28T21:35:07.678Z,8.07
2019-01-28T21:40:11.470Z,9.57
2019-01-28T21:45:15.411Z,8.17
2019-01-28T21:50:19.394Z,9.17
2019-01-28T21:55:23.229Z,8.80
2019-01-28T22:00:27.062Z,12.03
2019-01-28T22:05:32.424Z,14.17
2019-01-28T22:10:36.239Z,14.20
2019-01-28T22:15:39.939Z,12.47
2019-01-28T22:20:43.627Z,14.20
2019-01-28T22:25:47.311Z,43.47
2019-01-28T22:30:50.991Z,14.30
2019-01-28T22:35:54.673Z,11.77
2019-01-28T22:40:58.662Z,13.30
2019-01-28T22:46:02.345Z,11.90
2019-01-28T22:51:06.249Z,13.00
2019-01-28T22:56:09.933Z,14.43
2019-01-28T23:01:35.625Z,14.37
2019-01-28T23:06:39.320Z,11.87
2019-01-28T23:11:43.329Z,12.87
2019-01-28T23:16:47.073Z,11.27
2019-01-28T23:21:50.779Z,12.27
2019-01-28T23:26:54.481Z,13.00
2019-01-28T23:31:58.187Z,11.93
2019-01-28T23:37:01.870Z,12.10
2019-01-28T23:42:05.866Z,11.47
2019-01-28T23:47:09.617Z,10.87
2019-01-28T23:52:13.373Z,11.90
2019-01-28T23:57:17.323Z,12.30
